BWU weather

Sydney Bankstown Airport
Sydney, New South Wales, Australia

Public forecast

Using degrees Celsius for public forecast. Weather courtesy of forecast.io.

METAR (pilot weather report)

Closest report is Sydney Kingsford Smith International Airport, 9.5 nm (17.6 km) E. Retrieved 2018/06/23 13:30 UTC (0 seconds ago):

YSSY 231330Z 23010KT CAVOK 12/03 Q1025 NOSIG

TAF (pilot weather forecast)

Closest forecast is Sydney Kingsford Smith International Airport, 9.5 nm (17.6 km) E. Retrieved 2018/06/23 12:00 UTC (1 hour ago):

TAF YSSY 231103Z 2312/2418 21008KT CAVOK FM231800 29008KT 9999 FEW030 FM232300 18015KT 9999 SCT035 FM240800 21010KT 9999 SCT035 FM241400 29008KT 9999 FEW035